createdAt,value
2023-04-24T00:00:27.262Z,22.42
2023-04-24T00:05:30.636Z,22.40
2023-04-24T00:10:33.394Z,22.31
2023-04-24T00:15:37.544Z,22.31
2023-04-24T00:20:42.780Z,22.12
2023-04-24T00:25:45.623Z,22.19
2023-04-24T00:30:49.796Z,22.15
2023-04-24T00:35:52.589Z,22.09
2023-04-24T00:40:56.012Z,21.96
2023-04-24T00:46:02.693Z,21.94
2023-04-24T00:51:05.609Z,21.89
2023-04-24T00:56:08.401Z,21.87
2023-04-24T01:01:12.808Z,21.86
2023-04-24T01:06:15.817Z,21.78
2023-04-24T01:11:19.444Z,21.74
2023-04-24T01:16:23.638Z,21.73
2023-04-24T01:21:28.667Z,21.69
2023-04-24T01:26:32.960Z,21.67
2023-04-24T01:31:35.756Z,21.62
2023-04-24T01:36:38.546Z,21.58
2023-04-24T01:41:42.972Z,21.59
2023-04-24T01:46:45.934Z,21.50
2023-04-24T01:51:48.762Z,21.47
2023-04-24T01:56:53.025Z,21.45
2023-04-24T02:01:55.791Z,21.41
2023-04-24T02:06:58.591Z,21.37
2023-04-24T02:12:02.825Z,21.33
2023-04-24T02:17:05.820Z,21.36
2023-04-24T02:22:08.578Z,21.30
2023-04-24T02:27:12.684Z,21.28
2023-04-24T02:32:16.586Z,21.26
2023-04-24T02:37:19.860Z,21.24
2023-04-24T02:42:24.011Z,21.23
2023-04-24T02:47:27.516Z,21.20
2023-04-24T02:52:30.316Z,21.17
2023-04-24T02:57:34.498Z,21.15
2023-04-24T03:02:37.482Z,21.11
2023-04-24T03:07:40.304Z,21.08
2023-04-24T03:12:44.430Z,21.08
2023-04-24T03:17:47.230Z,21.03
2023-04-24T03:22:50.030Z,21.12
2023-04-24T03:27:55.849Z,21.10
2023-04-24T03:33:10.834Z,21.03
2023-04-24T03:38:19.938Z,21.08
2023-04-24T03:43:35.477Z,21.01
2023-04-24T03:48:38.760Z,20.98
2023-04-24T03:53:42.563Z,20.98
2023-04-24T03:58:48.636Z,20.97
2023-04-24T04:03:52.255Z,20.93
2023-04-24T04:08:58.342Z,20.90
2023-04-24T04:14:03.075Z,20.83
2023-04-24T04:19:06.408Z,20.82
2023-04-24T04:24:10.680Z,20.81
2023-04-24T04:29:19.760Z,20.78
2023-04-24T04:34:24.604Z,20.77
2023-04-24T04:39:29.103Z,20.79
2023-04-24T04:44:42.445Z,20.80
2023-04-24T04:49:49.802Z,20.77
2023-04-24T04:54:56.402Z,20.79
2023-04-24T05:00:12.689Z,20.82
2023-04-24T05:05:23.790Z,20.83
2023-04-24T05:10:26.758Z,20.86
2023-04-24T05:15:33.237Z,20.88
2023-04-24T05:20:37.579Z,20.93
2023-04-24T05:25:41.399Z,20.96
2023-04-24T05:30:49.305Z,21.04
2023-04-24T05:35:53.404Z,21.10
2023-04-24T05:40:57.389Z,21.15
2023-04-24T05:46:01.582Z,21.19
2023-04-24T05:51:04.458Z,21.24
2023-04-24T05:56:07.677Z,21.29
2023-04-24T06:01:13.315Z,21.33
2023-04-24T06:06:16.985Z,21.37
2023-04-24T06:11:20.543Z,21.45
2023-04-24T06:16:25.404Z,21.51
2023-04-24T06:21:35.189Z,21.10
2023-04-24T06:26:38.444Z,20.77
2023-04-24T06:31:47.610Z,20.25
2023-04-24T06:36:50.632Z,20.00
2023-04-24T06:41:53.509Z,20.12
2023-04-24T06:46:58.258Z,20.27
2023-04-24T06:52:01.342Z,20.37
2023-04-24T06:57:05.920Z,20.47
2023-04-24T07:02:23.488Z,20.57
2023-04-24T07:07:28.601Z,20.63
2023-04-24T07:12:31.487Z,20.74
2023-04-24T07:17:35.927Z,20.90
2023-04-24T07:22:39.545Z,21.04
2023-04-24T07:27:42.388Z,21.15
2023-04-24T07:32:46.639Z,21.22
2023-04-24T07:37:54.816Z,21.27
2023-04-24T07:43:02.015Z,21.31
2023-04-24T07:48:07.688Z,21.33
2023-04-24T07:53:14.608Z,21.40
2023-04-24T07:58:18.358Z,21.42
2023-04-24T08:03:25.974Z,21.46
2023-04-24T08:08:30.647Z,21.52
2023-04-24T08:13:33.570Z,21.55
2023-04-24T08:18:41.478Z,21.59
2023-04-24T08:23:47.271Z,21.61
2023-04-24T08:28:53.530Z,21.16
2023-04-24T08:34:00.573Z,20.79
2023-04-24T08:39:05.190Z,20.56
2023-04-24T08:44:10.551Z,20.43
2023-04-24T08:49:17.200Z,20.17
2023-04-24T08:54:20.117Z,20.03
2023-04-24T08:59:23.295Z,19.88
2023-04-24T09:04:27.880Z,19.80
2023-04-24T09:09:31.913Z,19.66
2023-04-24T09:14:34.749Z,19.38
2023-04-24T09:19:38.938Z,19.37
2023-04-24T09:24:41.798Z,19.39
2023-04-24T09:29:55.696Z,19.21
2023-04-24T09:35:10.331Z,19.02
2023-04-24T09:40:14.576Z,19.26
2023-04-24T09:45:17.554Z,19.41
2023-04-24T09:50:21.712Z,19.67
2023-04-24T09:55:25.337Z,19.73
2023-04-24T10:00:29.281Z,19.65
2023-04-24T10:05:34.474Z,19.59
2023-04-24T10:10:40.470Z,19.85
2023-04-24T10:15:43.602Z,19.98
2023-04-24T10:20:47.845Z,20.18
2023-04-24T10:25:50.617Z,20.31
2023-04-24T10:30:55.760Z,20.45
2023-04-24T10:36:00.406Z,20.46
2023-04-24T10:41:10.186Z,20.57
2023-04-24T10:46:13.312Z,20.71
2023-04-24T10:51:17.576Z,20.87
2023-04-24T10:56:20.563Z,20.92
2023-04-24T11:01:27.198Z,20.94
2023-04-24T11:06:36.648Z,21.07
2023-04-24T11:11:41.077Z,21.16
2023-04-24T11:16:53.708Z,21.18
2023-04-24T11:22:11.290Z,21.26
2023-04-24T11:27:16.520Z,21.27
2023-04-24T11:32:32.968Z,21.36
2023-04-24T11:37:49.465Z,21.43
2023-04-24T11:43:03.068Z,21.62
2023-04-24T11:48:07.257Z,21.62
2023-04-24T11:53:15.090Z,21.82
2023-04-24T11:58:24.068Z,21.92
2023-04-24T12:03:32.710Z,21.84
2023-04-24T12:08:50.061Z,21.69
2023-04-24T12:13:59.788Z,21.63
2023-04-24T12:19:03.875Z,21.33
2023-04-24T12:24:09.683Z,21.39
2023-04-24T12:29:13.238Z,21.32
2023-04-24T12:34:22.274Z,21.30
2023-04-24T12:39:27.723Z,21.27
2023-04-24T12:44:33.178Z,21.25
2023-04-24T12:49:44.889Z,21.39
2023-04-24T12:54:52.734Z,21.75
2023-04-24T12:59:59.412Z,21.98
2023-04-24T13:05:13.061Z,21.91
2023-04-24T13:10:25.509Z,22.21
2023-04-24T13:15:32.359Z,22.30
2023-04-24T13:20:37.532Z,22.18
2023-04-24T13:25:43.522Z,22.15
2023-04-24T13:30:55.451Z,22.08
2023-04-24T13:35:59.924Z,22.13
2023-04-24T13:41:05.285Z,21.98
2023-04-24T13:46:10.038Z,21.83
2023-04-24T13:51:21.744Z,21.98
2023-04-24T13:56:28.909Z,21.91
2023-04-24T14:01:47.797Z,21.83
2023-04-24T14:06:57.252Z,21.76
2023-04-24T14:12:02.004Z,21.72
2023-04-24T14:17:04.833Z,21.64
2023-04-24T14:22:08.007Z,22.05
2023-04-24T14:27:12.278Z,22.60
2023-04-24T14:32:15.912Z,23.06
2023-04-24T14:37:18.770Z,22.82
2023-04-24T14:42:22.893Z,23.26
2023-04-24T14:47:26.970Z,23.38
2023-04-24T14:52:29.790Z,22.95
2023-04-24T14:57:33.983Z,23.84
2023-04-24T15:02:40.932Z,24.03
2023-04-24T15:07:44.172Z,24.29
2023-04-24T15:12:48.263Z,24.11
2023-04-24T15:17:51.535Z,23.68
2023-04-24T15:22:56.582Z,23.44
2023-04-24T15:28:09.268Z,23.31
2023-04-24T15:33:14.729Z,23.04
2023-04-24T15:38:22.393Z,22.91
2023-04-24T15:43:29.105Z,22.76
2023-04-24T15:48:32.666Z,22.64
2023-04-24T15:53:40.491Z,22.80
2023-04-24T15:58:47.372Z,23.75
2023-04-24T16:03:59.209Z,24.41
2023-04-24T16:09:09.656Z,24.87
2023-04-24T16:14:22.909Z,25.96
2023-04-24T16:19:37.434Z,26.93
2023-04-24T16:24:47.595Z,27.26
2023-04-24T16:29:58.174Z,27.20
2023-04-24T16:35:07.607Z,26.77
2023-04-24T16:40:26.943Z,25.70
2023-04-24T16:45:31.283Z,25.06
2023-04-24T16:50:34.133Z,24.49
2023-04-24T16:55:36.958Z,24.16
2023-04-24T17:00:41.222Z,23.82
2023-04-24T17:05:44.888Z,23.60
2023-04-24T17:10:55.830Z,23.35
2023-04-24T17:16:10.987Z,23.18
2023-04-24T17:21:20.892Z,23.10
2023-04-24T17:26:26.317Z,22.85
2023-04-24T17:31:30.589Z,22.89
2023-04-24T17:36:33.549Z,22.89
2023-04-24T17:41:36.748Z,22.84
2023-04-24T17:46:40.957Z,22.80
2023-04-24T17:51:43.762Z,22.77
2023-04-24T17:56:46.501Z,22.69
2023-04-24T18:01:50.772Z,22.59
2023-04-24T18:06:54.718Z,22.60
2023-04-24T18:12:05.593Z,22.53
2023-04-24T18:17:13.356Z,22.51
2023-04-24T18:22:20.249Z,22.58
2023-04-24T18:27:34.083Z,22.49
2023-04-24T18:32:40.214Z,22.47
2023-04-24T18:37:42.982Z,22.45
2023-04-24T18:42:45.947Z,22.45
2023-04-24T18:47:50.246Z,22.45
2023-04-24T18:52:53.150Z,22.41
2023-04-24T18:57:56.011Z,22.42
2023-04-24T19:03:00.376Z,22.43
2023-04-24T19:08:03.331Z,22.41
2023-04-24T19:13:06.271Z,22.40
2023-04-24T19:18:10.676Z,22.42
2023-04-24T19:23:13.539Z,22.42
2023-04-24T19:28:16.294Z,22.38
2023-04-24T19:33:20.468Z,22.35
2023-04-24T19:38:23.320Z,22.35
2023-04-24T19:43:26.385Z,22.40
2023-04-24T19:48:32.608Z,22.47
2023-04-24T19:53:43.865Z,22.45
2023-04-24T19:58:51.809Z,22.48
2023-04-24T20:03:57.729Z,22.50
2023-04-24T20:09:00.743Z,22.48
2023-04-24T20:14:03.722Z,22.45
2023-04-24T20:19:08.251Z,22.46
2023-04-24T20:24:11.045Z,22.56
2023-04-24T20:29:13.868Z,22.52
2023-04-24T20:34:19.926Z,22.54
2023-04-24T20:39:24.418Z,22.48
2023-04-24T20:44:27.312Z,22.48
2023-04-24T20:49:34.529Z,22.53
2023-04-24T20:54:43.685Z,22.50
2023-04-24T20:59:48.470Z,22.52
2023-04-24T21:04:52.827Z,22.56
2023-04-24T21:09:55.988Z,22.53
2023-04-24T21:15:03.970Z,22.62
2023-04-24T21:20:12.048Z,22.56
2023-04-24T21:25:15.698Z,22.53
2023-04-24T21:30:19.202Z,22.57
2023-04-24T21:35:23.814Z,22.61
2023-04-24T21:40:26.572Z,22.56
2023-04-24T21:45:29.397Z,22.55
2023-04-24T21:50:33.554Z,22.56
2023-04-24T21:55:36.352Z,22.52
2023-04-24T22:00:45.905Z,22.55
2023-04-24T22:05:50.196Z,22.59
2023-04-24T22:10:53.402Z,22.55
2023-04-24T22:15:56.418Z,22.52
2023-04-24T22:21:01.083Z,22.50
2023-04-24T22:26:03.978Z,22.48
2023-04-24T22:31:07.414Z,22.42
2023-04-24T22:36:11.663Z,22.37
2023-04-24T22:41:14.781Z,22.27
2023-04-24T22:46:17.632Z,22.23
2023-04-24T22:51:22.787Z,22.15
2023-04-24T22:56:26.011Z,22.08
2023-04-24T23:01:28.946Z,22.04
2023-04-24T23:06:33.469Z,21.93
2023-04-24T23:11:36.282Z,21.88
2023-04-24T23:16:40.858Z,21.83
2023-04-24T23:21:45.006Z,21.78
2023-04-24T23:26:47.774Z,21.73
2023-04-24T23:31:50.971Z,21.68
2023-04-24T23:36:55.357Z,21.63
2023-04-24T23:41:59.571Z,21.57
2023-04-24T23:47:02.501Z,21.52
2023-04-24T23:52:06.753Z,21.48
2023-04-24T23:57:09.620Z,21.42
